Largs, United Kingdom
Current Conditions -  °F | °C
As of 3:50 PM on Thursday 30 Oct 2014 (Local Time) from EGPF Reporting Station
Drizzle Drizzle  
Wind Chill: 50°   Ceiling: 500
Heat Index: 50°   Visibility: 3mi
Dew Point: 50°   Wind: 3mph
Humidity: 100%   Direction: NA
Pressure: 29.85"   Gusts: NA
Location:  55.8°N, 4.86°W
Report Text: EGPF 301550Z VRB03KT 5000 -DZ BKN005 OVC009 10/10 Q1011
Loading
Personal Weather Stations






























Interactive Weather Map
Tropical Storm Tracking
New forecast layout! Learn more

10-Day Weather Forecast

Advertisements
Track Severe Weather on mobile